Time;durP1;ratioP1;P1;durP2;ratioP2;P2;SDS_P1;SDS_P2;PMS_P1;PMS_P2;Temp;Humidity;BMP_temperature;BMP_pressure;BME280_temperature;BME280_humidity;BME280_pressure;Samples;Min_cycle;Max_cycle;Signal;HPM_P1;HPM_P2
2024/02/12 00:02:00;;;;;;;;;;;;;;;;;;4990166;28;19926;-72
2024/02/12 00:04:29;;;;;;;;;;;;;;;;;;4989067;28;20000;-72
2024/02/12 00:06:56;;;;;;;;;;;;;;;;;;4988889;28;20640;-72
2024/02/12 00:09:22;;;;;;;;;;;;;;;;;;4988534;28;20023;-72
2024/02/12 00:11:47;;;;;;;;;;;;;;;;;;5005479;28;19929;-72
2024/02/12 00:14:12;;;;;;;;;;;;;;;;;;4989964;28;19918;-74
2024/02/12 00:16:38;;;;;;;;;;;;;;;;;;4986865;28;19921;-72
2024/02/12 00:19:03;;;;;;;;;;;;;;;;;;4991646;28;20282;-72
2024/02/12 00:21:29;;;;;;;;;;;;;;;;;;4991793;28;20467;-72
2024/02/12 00:23:54;;;;;;;;;;;;;;;;;;5006551;28;20330;-72
2024/02/12 00:26:25;;;;;;;;;;;;;;;;;;4992424;28;19940;-73
2024/02/12 00:28:50;;;;;;;;;;;;;;;;;;5005494;28;19921;-72
2024/02/12 00:31:17;;;;;;;;;;;;;;;;;;4993454;28;20004;-73
2024/02/12 00:33:43;;;;;;;;;;;;;;;;;;4990009;28;20266;-76
2024/02/12 00:36:09;;;;;;;;;;;;;;;;;;5008910;28;20245;-77
2024/02/12 00:38:34;;;;;;;;;;;;;;;;;;4991128;28;19928;-77
2024/02/12 00:40:59;;;;;;;;;;;;;;;;;;4990067;28;19917;-77
2024/02/12 00:43:26;;;;;;;;;;;;;;;;;;4992337;28;20490;-76
2024/02/12 00:45:52;;;;;;;;;;;;;;;;;;4991484;28;19917;-76
2024/02/12 00:48:18;;;;;;;;;;;;;;;;;;4994288;28;19940;-76
2024/02/12 00:50:44;;;;;;;;;;;;;;;;;;4990806;28;19921;-76
2024/02/12 00:53:10;;;;;;;;;;;;;;;;;;4992278;28;19924;-77
2024/02/12 00:55:35;;;;;;;;;;;;;;;;;;4993064;28;19925;-76
2024/02/12 00:58:03;;;;;;;;;;;;;;;;;;4991365;28;20308;-76
2024/02/12 01:00:28;;;;;;;;;;;;;;;;;;4993722;28;20268;-75
2024/02/12 01:02:54;;;;;;;;;;;;;;;;;;4994410;28;19941;-75
2024/02/12 01:05:19;;;;;;;;;;;;;;;;;;4996856;28;19914;-75
2024/02/12 01:07:44;;;;;;;;;;;;;;;;;;4994808;28;19921;-75
2024/02/12 01:10:13;;;;;;;;;;;;;;;;;;4996360;28;19917;-76
2024/02/12 01:12:39;;;;;;;;;;;;;;;;;;4998046;28;20361;-75
2024/02/12 01:15:06;;;;;;;;;;;;;;;;;;4996826;28;19953;-75
2024/02/12 01:17:31;;;;;;;;;;;;;;;;;;5000344;28;19925;-75
2024/02/12 01:19:56;;;;;;;;;;;;;;;;;;4981420;28;19931;-74
2024/02/12 01:22:22;;;;;;;;;;;;;;;;;;4995953;28;19929;-75
2024/02/12 01:24:47;;;;;;;;;;;;;;;;;;4999078;28;19925;-74
2024/02/12 01:27:15;;;;;;;;;;;;;;;;;;4998524;28;20376;-75
2024/02/12 01:29:48;;;;;;;;;;;;;;;;;;4998514;28;19918;-75
2024/02/12 01:32:14;;;;;;;;;;;;;;;;;;4995467;28;20432;-75
2024/02/12 01:34:40;;;;;;;;;;;;;;;;;;4995727;28;19925;-74
2024/02/12 01:37:06;;;;;;;;;;;;;;;;;;5001112;28;19925;-74
2024/02/12 01:39:31;;;;;;;;;;;;;;;;;;4997558;28;19929;-75
2024/02/12 01:41:57;;;;;;;;;;;;;;;;;;4974454;28;19989;-76
2024/02/12 01:44:22;;;;;;;;;;;;;;;;;;5001818;28;20028;-74
2024/02/12 01:46:49;;;;;;;;;;;;;;;;;;4994682;28;19922;-73
2024/02/12 01:49:14;;;;;;;;;;;;;;;;;;4996133;28;20337;-75
2024/02/12 01:51:42;;;;;;;;;;;;;;;;;;4995752;28;20489;-75
2024/02/12 01:54:08;;;;;;;;;;;;;;;;;;4996999;28;19921;-75
2024/02/12 01:56:33;;;;;;;;;;;;;;;;;;4995236;28;20396;-74
2024/02/12 01:59:00;;;;;;;;;;;;;;;;;;4996770;28;20566;-74
2024/02/12 02:01:25;;;;;;;;;;;;;;;;;;4995712;28;20287;-76
2024/02/12 02:03:50;;;;;;;;;;;;;;;;;;5003349;28;19926;-75
2024/02/12 02:06:16;;;;;;;;;;;;;;;;;;4983448;28;19952;-74
2024/02/12 02:08:44;;;;;;;;;;;;;;;;;;4998864;28;20037;-75
2024/02/12 02:11:14;;;;;;;;;;;;;;;;;;4998403;28;19932;-74
2024/02/12 02:13:43;;;;;;;;;;;;;;;;;;4997383;28;20012;-75
2024/02/12 02:16:08;;;;;;;;;;;;;;;;;;4981831;28;20273;-74
2024/02/12 02:18:34;;;;;;;;;;;;;;;;;;4998114;28;19928;-75
2024/02/12 02:21:00;;;;;;;;;;;;;;;;;;4998024;28;20321;-75
2024/02/12 02:23:25;;;;;;;;;;;;;;;;;;5001549;28;20352;-74
2024/02/12 02:25:51;;;;;;;;;;;;;;;;;;4984487;28;19932;-75
2024/02/12 02:28:16;;;;;;;;;;;;;;;;;;5000290;28;19922;-75
2024/02/12 02:30:48;;;;;;;;;;;;;;;;;;5000029;28;19979;-75
2024/02/12 02:33:13;;;;;;;;;;;;;;;;;;4998249;28;19922;-77
2024/02/12 02:35:39;;;;;;;;;;;;;;;;;;4997931;28;20623;-74
2024/02/12 02:38:04;;;;;;;;;;;;;;;;;;4992545;28;19924;-75
2024/02/12 02:40:29;;;;;;;;;;;;;;;;;;4998061;28;19932;-76
2024/02/12 02:42:56;;;;;;;;;;;;;;;;;;4995950;28;20411;-76
2024/02/12 02:45:21;;;;;;;;;;;;;;;;;;4991570;28;19949;-75
2024/02/12 02:47:49;;;;;;;;;;;;;;;;;;4978559;28;20365;-75
2024/02/12 02:50:14;;;;;;;;;;;;;;;;;;4997303;28;19921;-76
2024/02/12 02:52:40;;;;;;;;;;;;;;;;;;4992855;28;20349;-74
2024/02/12 02:55:06;;;;;;;;;;;;;;;;;;5000880;28;19929;-74
2024/02/12 02:57:34;;;;;;;;;;;;;;;;;;4993996;28;19968;-74
2024/02/12 03:00:00;;;;;;;;;;;;;;;;;;4999129;28;19913;-75
2024/02/12 03:02:25;;;;;;;;;;;;;;;;;;5015700;28;20404;-75
2024/02/12 03:04:50;;;;;;;;;;;;;;;;;;5003252;28;20377;-75
2024/02/12 03:07:16;;;;;;;;;;;;;;;;;;5001087;28;20349;-75
2024/02/12 03:09:42;;;;;;;;;;;;;;;;;;5002924;28;20056;-76
2024/02/12 03:12:07;;;;;;;;;;;;;;;;;;5005778;28;20745;-76
2024/02/12 03:14:32;;;;;;;;;;;;;;;;;;5004181;28;19925;-76
2024/02/12 03:16:58;;;;;;;;;;;;;;;;;;5002470;28;19917;-76
2024/02/12 03:19:23;;;;;;;;;;;;;;;;;;5003576;28;20582;-76
2024/02/12 03:21:49;;;;;;;;;;;;;;;;;;5004984;28;20331;-75
2024/02/12 03:24:15;;;;;;;;;;;;;;;;;;5003344;28;20293;-76
2024/02/12 03:26:40;;;;;;;;;;;;;;;;;;4998735;28;19918;-74
2024/02/12 03:29:05;;;;;;;;;;;;;;;;;;5001486;28;19964;-76
2024/02/12 03:31:31;;;;;;;;;;;;;;;;;;4999201;28;19965;-76
2024/02/12 03:33:56;;;;;;;;;;;;;;;;;;4993581;28;19921;-76
2024/02/12 03:36:21;;;;;;;;;;;;;;;;;;4999611;28;19944;-76
2024/02/12 03:38:46;;;;;;;;;;;;;;;;;;4997702;28;19922;-76
2024/02/12 03:41:12;;;;;;;;;;;;;;;;;;4999491;28;20004;-75
2024/02/12 03:43:37;;;;;;;;;;;;;;;;;;5001245;28;19932;-76
2024/02/12 03:46:03;;;;;;;;;;;;;;;;;;5000719;28;20358;-76
2024/02/12 04:02:10;;;;;;;;;;;;;;;;;;4997268;28;19929;-75
2024/02/12 04:04:38;;;;;;;;;;;;;;;;;;4995114;28;19917;-75
2024/02/12 04:07:03;;;;;;;;;;;;;;;;;;4997771;28;19922;-75
2024/02/12 04:09:29;;;;;;;;;;;;;;;;;;4976406;28;19929;-75
2024/02/12 04:11:55;;;;;;;;;;;;;;;;;;4993360;28;19927;-75
2024/02/12 04:14:29;;;;;;;;;;;;;;;;;;4997008;28;20277;-75
2024/02/12 04:16:55;;;;;;;;;;;;;;;;;;4995971;28;19917;-75
2024/02/12 04:19:22;;;;;;;;;;;;;;;;;;4993277;28;20269;-74
2024/02/12 04:21:49;;;;;;;;;;;;;;;;;;4995717;28;19933;-74
2024/02/12 04:24:14;;;;;;;;;;;;;;;;;;4995256;28;19929;-76
2024/02/12 04:26:40;;;;;;;;;;;;;;;;;;4994635;28;19983;-76
2024/02/12 04:29:06;;;;;;;;;;;;;;;;;;4996930;28;20121;-76
2024/02/12 04:31:31;;;;;;;;;;;;;;;;;;4991728;28;19929;-76
2024/02/12 04:33:56;;;;;;;;;;;;;;;;;;4996313;28;19922;-76
2024/02/12 04:36:23;;;;;;;;;;;;;;;;;;4993840;28;20009;-76
2024/02/12 04:38:48;;;;;;;;;;;;;;;;;;4996260;28;19917;-75
2024/02/12 04:44:30;;;;;;;;;;;;;;;;;;4994682;28;19928;-75
2024/02/12 04:46:55;;;;;;;;;;;;;;;;;;4989319;28;19922;-76
2024/02/12 04:49:21;;;;;;;;;;;;;;;;;;4994393;28;20012;-75
2024/02/12 04:51:46;;;;;;;;;;;;;;;;;;4992028;28;19999;-75
2024/02/12 04:54:11;;;;;;;;;;;;;;;;;;4994722;28;19921;-76
2024/02/12 04:56:37;;;;;;;;;;;;;;;;;;4992864;28;19980;-75
2024/02/12 05:01:54;;;;;;;;;;;;;;;;;;4988043;28;19922;-75
2024/02/12 05:04:20;;;;;;;;;;;;;;;;;;4995144;28;19917;-75
2024/02/12 05:06:45;;;;;;;;;;;;;;;;;;4990691;28;20625;-76
2024/02/12 05:12:29;;;;;;;;;;;;;;;;;;4988241;28;19924;-75
2024/02/12 05:14:54;;;;;;;;;;;;;;;;;;4973128;28;20723;-75
2024/02/12 05:23:20;;;;;;;;;;;;;;;;;;4993312;28;19926;-75
2024/02/12 05:28:38;;;;;;;;;;;;;;;;;;4992750;28;20349;-75
2024/02/12 05:31:03;;;;;;;;;;;;;;;;;;4996430;28;20078;-75
2024/02/12 05:33:31;;;;;;;;;;;;;;;;;;4986164;28;19944;-76
2024/02/12 05:35:57;;;;;;;;;;;;;;;;;;4991916;28;19921;-75
2024/02/12 05:41:41;;;;;;;;;;;;;;;;;;4997559;28;19975;-75
2024/02/12 05:44:06;;;;;;;;;;;;;;;;;;4994219;28;19925;-76
2024/02/12 05:46:31;;;;;;;;;;;;;;;;;;4996255;28;19921;-75
2024/02/12 05:51:49;;;;;;;;;;;;;;;;;;4997645;28;19925;-76
2024/02/12 05:54:15;;;;;;;;;;;;;;;;;;4999484;28;20424;-75
2024/02/12 05:56:41;;;;;;;;;;;;;;;;;;4994299;28;20003;-75
2024/02/12 05:59:07;;;;;;;;;;;;;;;;;;4997285;28;19921;-76
2024/02/12 06:01:32;;;;;;;;;;;;;;;;;;4992127;28;19929;-75
2024/02/12 06:03:58;;;;;;;;;;;;;;;;;;4995487;28;19921;-75
2024/02/12 06:06:25;;;;;;;;;;;;;;;;;;4995117;28;19932;-75
2024/02/12 06:08:50;;;;;;;;;;;;;;;;;;4993265;28;20945;-75
2024/02/12 06:11:15;;;;;;;;;;;;;;;;;;4994732;28;20032;-75
2024/02/12 06:13:41;;;;;;;;;;;;;;;;;;4994768;28;20198;-75
2024/02/12 06:16:06;;;;;;;;;;;;;;;;;;4996303;28;20242;-76
2024/02/12 06:18:31;;;;;;;;;;;;;;;;;;4995659;28;19913;-73
2024/02/12 06:20:57;;;;;;;;;;;;;;;;;;4996066;28;19964;-74
2024/02/12 06:23:22;;;;;;;;;;;;;;;;;;4993714;28;20304;-75
2024/02/12 06:25:47;;;;;;;;;;;;;;;;;;5013302;28;20866;-75
2024/02/12 06:28:13;;;;;;;;;;;;;;;;;;4994911;28;20013;-76
2024/02/12 06:30:38;;;;;;;;;;;;;;;;;;4999702;28;19917;-75
2024/02/12 06:33:03;;;;;;;;;;;;;;;;;;4996036;28;20024;-75
2024/02/12 06:35:29;;;;;;;;;;;;;;;;;;4995120;28;20653;-77
2024/02/12 06:37:54;;;;;;;;;;;;;;;;;;4996710;28;19922;-74
2024/02/12 06:40:21;;;;;;;;;;;;;;;;;;4997712;28;19913;-74
2024/02/12 06:42:46;;;;;;;;;;;;;;;;;;4992794;28;19976;-74
2024/02/12 06:45:11;;;;;;;;;;;;;;;;;;4979472;28;19984;-74
2024/02/12 06:47:36;;;;;;;;;;;;;;;;;;4994027;28;20066;-75
2024/02/12 06:50:03;;;;;;;;;;;;;;;;;;4993442;28;19937;-74
2024/02/12 06:52:28;;;;;;;;;;;;;;;;;;4997050;28;20450;-74
2024/02/12 06:54:54;;;;;;;;;;;;;;;;;;4993880;28;19913;-75
2024/02/12 06:57:19;;;;;;;;;;;;;;;;;;4993526;28;19917;-74
2024/02/12 06:59:45;;;;;;;;;;;;;;;;;;4994190;28;20634;-76
2024/02/12 07:02:10;;;;;;;;;;;;;;;;;;4994773;28;19975;-75
2024/02/12 07:04:36;;;;;;;;;;;;;;;;;;5007642;28;19943;-74
2024/02/12 07:07:01;;;;;;;;;;;;;;;;;;4993822;28;19921;-76
2024/02/12 07:09:26;;;;;;;;;;;;;;;;;;4992077;28;20312;-76
2024/02/12 07:11:52;;;;;;;;;;;;;;;;;;4990572;28;20023;-75
2024/02/12 07:14:17;;;;;;;;;;;;;;;;;;4997737;28;19985;-75
2024/02/12 07:16:42;;;;;;;;;;;;;;;;;;4993807;28;20042;-75
2024/02/12 07:19:08;;;;;;;;;;;;;;;;;;4995722;28;20395;-75
2024/02/12 07:21:33;;;;;;;;;;;;;;;;;;4994169;28;19956;-75
2024/02/12 07:23:59;;;;;;;;;;;;;;;;;;4989274;28;19991;-75
2024/02/12 07:26:24;;;;;;;;;;;;;;;;;;4993999;28;19929;-75
2024/02/12 07:28:50;;;;;;;;;;;;;;;;;;4993256;28;19957;-75
2024/02/12 07:31:15;;;;;;;;;;;;;;;;;;4996147;28;19930;-76
2024/02/12 07:33:40;;;;;;;;;;;;;;;;;;4992961;28;20439;-75
2024/02/12 07:36:06;;;;;;;;;;;;;;;;;;4994752;28;19921;-76
2024/02/12 07:38:32;;;;;;;;;;;;;;;;;;4993049;28;20325;-75
2024/02/12 07:40:58;;;;;;;;;;;;;;;;;;4994915;28;19967;-74
2024/02/12 07:43:28;;;;;;;;;;;;;;;;;;4992429;28;19925;-75
2024/02/12 07:45:53;;;;;;;;;;;;;;;;;;4990255;28;19928;-75
2024/02/12 07:48:19;;;;;;;;;;;;;;;;;;4993009;28;19922;-75
2024/02/12 07:50:44;;;;;;;;;;;;;;;;;;4996268;28;19917;-76
2024/02/12 07:53:09;;;;;;;;;;;;;;;;;;4990556;28;20401;-75
2024/02/12 07:55:35;;;;;;;;;;;;;;;;;;4993083;28;20329;-75
2024/02/12 07:58:00;;;;;;;;;;;;;;;;;;4992833;28;20486;-75
2024/02/12 08:00:25;;;;;;;;;;;;;;;;;;4992047;28;19922;-75
2024/02/12 08:02:51;;;;;;;;;;;;;;;;;;4991415;28;19921;-75
2024/02/12 08:05:16;;;;;;;;;;;;;;;;;;4993174;28;19922;-74
2024/02/12 08:07:43;;;;;;;;;;;;;;;;;;4992873;28;19926;-75
2024/02/12 08:10:08;;;;;;;;;;;;;;;;;;4991040;28;19917;-75
2024/02/12 08:12:34;;;;;;;;;;;;;;;;;;4992649;28;19918;-75
2024/02/12 08:14:59;;;;;;;;;;;;;;;;;;4993450;28;20431;-75
2024/02/12 08:17:24;;;;;;;;;;;;;;;;;;4991798;28;19987;-75
2024/02/12 08:19:50;;;;;;;;;;;;;;;;;;4992108;28;20044;-76
2024/02/12 08:22:15;;;;;;;;;;;;;;;;;;4995376;28;19932;-76
2024/02/12 08:24:40;;;;;;;;;;;;;;;;;;4992617;28;19922;-76
2024/02/12 08:27:07;;;;;;;;;;;;;;;;;;4990947;28;19929;-76
2024/02/12 08:29:32;;;;;;;;;;;;;;;;;;4992016;28;20373;-76
2024/02/12 08:32:16;;;;;;;;;;;;;;;;;;4992858;28;20014;-77
2024/02/12 08:34:41;;;;;;;;;;;;;;;;;;4991633;28;20355;-77
2024/02/12 08:37:08;;;;;;;;;;;;;;;;;;4992935;28;20987;-77
2024/02/12 08:39:34;;;;;;;;;;;;;;;;;;4992437;28;20072;-75
2024/02/12 08:41:59;;;;;;;;;;;;;;;;;;4992294;28;19917;-75
2024/02/12 08:44:26;;;;;;;;;;;;;;;;;;4992358;28;20756;-76
2024/02/12 08:46:51;;;;;;;;;;;;;;;;;;4994037;28;19917;-76
2024/02/12 08:49:16;;;;;;;;;;;;;;;;;;4994970;28;20303;-76
2024/02/12 08:51:42;;;;;;;;;;;;;;;;;;4988824;28;20626;-77
2024/02/12 08:54:07;;;;;;;;;;;;;;;;;;4995598;28;19922;-77
2024/02/12 08:56:36;;;;;;;;;;;;;;;;;;4976475;28;19918;-78
2024/02/12 08:59:01;;;;;;;;;;;;;;;;;;4991735;28;19927;-79
2024/02/12 09:01:27;;;;;;;;;;;;;;;;;;4993980;28;19917;-77
2024/02/12 09:03:52;;;;;;;;;;;;;;;;;;4991475;28;19929;-78
2024/02/12 09:06:17;;;;;;;;;;;;;;;;;;4991634;28;19924;-75
2024/02/12 09:08:42;;;;;;;;;;;;;;;;;;4992918;28;20102;-77
2024/02/12 09:11:08;;;;;;;;;;;;;;;;;;4993386;28;20312;-75
2024/02/12 09:13:33;;;;;;;;;;;;;;;;;;4999677;28;20008;-75
2024/02/12 09:15:58;;;;;;;;;;;;;;;;;;4998789;28;19941;-75
2024/02/12 09:18:26;;;;;;;;;;;;;;;;;;4997005;28;19917;-75
2024/02/12 09:20:52;;;;;;;;;;;;;;;;;;4996680;28;20435;-75
2024/02/12 09:23:20;;;;;;;;;;;;;;;;;;4996818;28;19921;-74
2024/02/12 09:25:46;;;;;;;;;;;;;;;;;;5010939;28;20467;-73
2024/02/12 09:28:11;;;;;;;;;;;;;;;;;;4998417;28;20369;-72
2024/02/12 09:30:36;;;;;;;;;;;;;;;;;;4995400;28;19927;-73
2024/02/12 09:33:02;;;;;;;;;;;;;;;;;;4995776;28;20029;-72
2024/02/12 09:35:29;;;;;;;;;;;;;;;;;;4993400;28;19975;-72
2024/02/12 09:37:57;;;;;;;;;;;;;;;;;;4994666;28;19925;-70
2024/02/12 09:40:23;;;;;;;;;;;;;;;;;;4994844;28;19957;-71
2024/02/12 09:42:49;;;;;;;;;;;;;;;;;;4994149;28;19925;-73
2024/02/12 09:45:14;;;;;;;;;;;;;;;;;;4996038;28;20342;-71
2024/02/12 09:47:43;;;;;;;;;;;;;;;;;;4995057;28;21462;-72
2024/02/12 09:50:17;;;;;;;;;;;;;;;;;;4994544;28;19940;-71
2024/02/12 09:52:47;;;;;;;;;;;;;;;;;;4994963;28;20485;-72
2024/02/12 09:55:12;;;;;;;;;;;;;;;;;;4994065;28;20889;-72
2024/02/12 09:57:38;;;;;;;;;;;;;;;;;;5008488;28;19940;-72
2024/02/12 10:00:07;;;;;;;;;;;;;;;;;;4994660;28;19921;-71
2024/02/12 10:02:34;;;;;;;;;;;;;;;;;;4994205;28;20113;-71
2024/02/12 10:04:59;;;;;;;;;;;;;;;;;;4995514;28;19928;-70
2024/02/12 10:07:25;;;;;;;;;;;;;;;;;;4992725;28;19917;-70
2024/02/12 10:09:50;;;;;;;;;;;;;;;;;;4994583;28;19975;-71
2024/02/12 10:12:15;;;;;;;;;;;;;;;;;;4993913;28;19929;-71
2024/02/12 10:14:43;;;;;;;;;;;;;;;;;;4997882;28;20007;-70
2024/02/12 10:17:09;;;;;;;;;;;;;;;;;;4994540;28;20411;-71
2024/02/12 10:19:37;;;;;;;;;;;;;;;;;;5008476;28;20020;-70
2024/02/12 10:22:03;;;;;;;;;;;;;;;;;;4995103;28;19930;-73
2024/02/12 10:24:31;;;;;;;;;;;;;;;;;;4993537;28;19925;-71
2024/02/12 10:26:59;;;;;;;;;;;;;;;;;;4990920;28;19924;-72
2024/02/12 10:29:24;;;;;;;;;;;;;;;;;;4994900;28;19925;-71
2024/02/12 10:31:50;;;;;;;;;;;;;;;;;;4994051;28;19918;-70
2024/02/12 10:34:15;;;;;;;;;;;;;;;;;;4995115;28;20843;-70
2024/02/12 10:36:40;;;;;;;;;;;;;;;;;;4994971;28;19968;-70
2024/02/12 10:39:06;;;;;;;;;;;;;;;;;;4990861;28;19921;-71
2024/02/12 10:41:32;;;;;;;;;;;;;;;;;;4991124;28;19956;-69
2024/02/12 10:43:57;;;;;;;;;;;;;;;;;;4988750;28;19973;-69
2024/02/12 10:46:25;;;;;;;;;;;;;;;;;;4998470;28;20249;-73
2024/02/12 10:48:52;;;;;;;;;;;;;;;;;;4990566;28;20450;-71
2024/02/12 10:51:19;;;;;;;;;;;;;;;;;;4994921;28;20011;-70
2024/02/12 10:53:46;;;;;;;;;;;;;;;;;;4990783;28;19918;-73
2024/02/12 10:56:17;;;;;;;;;;;;;;;;;;4994477;28;19931;-70
2024/02/12 10:58:44;;;;;;;;;;;;;;;;;;4988916;28;19960;-72
2024/02/12 11:01:12;;;;;;;;;;;;;;;;;;4995628;28;19918;-73
2024/02/12 11:03:39;;;;;;;;;;;;;;;;;;4991037;28;19925;-73
2024/02/12 11:06:08;;;;;;;;;;;;;;;;;;4989392;28;19922;-71
2024/02/12 11:08:36;;;;;;;;;;;;;;;;;;4989261;28;19944;-71
2024/02/12 11:11:03;;;;;;;;;;;;;;;;;;4988121;28;20008;-69
2024/02/12 11:13:28;;;;;;;;;;;;;;;;;;4990516;28;19918;-71
2024/02/12 11:15:54;;;;;;;;;;;;;;;;;;4992239;28;20421;-70
2024/02/12 11:18:19;;;;;;;;;;;;;;;;;;4993181;28;20269;-72
2024/02/12 11:20:54;;;;;;;;;;;;;;;;;;4989358;28;19928;-70
2024/02/12 11:23:20;;;;;;;;;;;;;;;;;;4984493;28;20357;-70
2024/02/12 11:25:45;;;;;;;;;;;;;;;;;;4991960;28;19918;-72
2024/02/12 11:28:13;;;;;;;;;;;;;;;;;;4990494;28;19917;-71
2024/02/12 11:30:42;;;;;;;;;;;;;;;;;;4988753;28;19928;-71
2024/02/12 11:33:08;;;;;;;;;;;;;;;;;;4993891;28;19956;-70
2024/02/12 11:35:34;;;;;;;;;;;;;;;;;;4993518;28;19918;-70
2024/02/12 11:38:00;;;;;;;;;;;;;;;;;;4988402;28;19921;-70
2024/02/12 11:40:28;;;;;;;;;;;;;;;;;;4987701;28;19963;-69
2024/02/12 11:42:53;;;;;;;;;;;;;;;;;;4990454;28;19965;-72
2024/02/12 11:45:19;;;;;;;;;;;;;;;;;;4991659;28;20017;-70
2024/02/12 11:47:47;;;;;;;;;;;;;;;;;;4989652;28;20436;-72
2024/02/12 11:50:12;;;;;;;;;;;;;;;;;;4987085;28;19921;-71
2024/02/12 11:52:37;;;;;;;;;;;;;;;;;;4992465;28;19937;-71
2024/02/12 11:55:07;;;;;;;;;;;;;;;;;;4991140;28;20246;-71
2024/02/12 11:57:35;;;;;;;;;;;;;;;;;;4986313;28;19922;-69
2024/02/12 12:00:00;;;;;;;;;;;;;;;;;;4991462;28;20319;-71
2024/02/12 12:02:28;;;;;;;;;;;;;;;;;;4994372;28;20086;-69
2024/02/12 12:04:54;;;;;;;;;;;;;;;;;;4991424;28;19921;-71
2024/02/12 12:07:21;;;;;;;;;;;;;;;;;;4985911;28;19972;-71
2024/02/12 12:09:47;;;;;;;;;;;;;;;;;;4990915;28;19921;-70
2024/02/12 12:12:12;;;;;;;;;;;;;;;;;;4990373;28;20373;-74
2024/02/12 12:14:38;;;;;;;;;;;;;;;;;;4994898;28;19918;-71
2024/02/12 12:20:20;;;;;;;;;;;;;;;;;;4984803;28;19944;-73
2024/02/12 12:22:48;;;;;;;;;;;;;;;;;;4988326;28;20550;-71
2024/02/12 12:28:31;;;;;;;;;;;;;;;;;;4988751;28;19971;-72
2024/02/12 12:30:57;;;;;;;;;;;;;;;;;;4984928;28;19985;-70
2024/02/12 12:33:24;;;;;;;;;;;;;;;;;;4991507;28;19948;-71
2024/02/12 12:35:49;;;;;;;;;;;;;;;;;;4988294;28;19921;-72
2024/02/12 12:38:14;;;;;;;;;;;;;;;;;;5001384;28;19918;-73
2024/02/12 12:40:41;;;;;;;;;;;;;;;;;;4991112;28;20442;-71
2024/02/12 12:43:08;;;;;;;;;;;;;;;;;;5002578;28;20300;-70
2024/02/12 12:45:34;;;;;;;;;;;;;;;;;;4985878;28;20076;-71
2024/02/12 12:48:00;;;;;;;;;;;;;;;;;;4989707;28;19917;-71
2024/02/12 12:50:25;;;;;;;;;;;;;;;;;;4972500;28;19992;-70
2024/02/12 12:52:50;;;;;;;;;;;;;;;;;;4987373;28;20425;-72
2024/02/12 12:55:17;;;;;;;;;;;;;;;;;;4986166;28;19917;-71
2024/02/12 13:00:59;;;;;;;;;;;;;;;;;;4985534;28;19925;-71
2024/02/12 13:03:25;;;;;;;;;;;;;;;;;;4988127;28;19926;-71
2024/02/12 13:05:55;;;;;;;;;;;;;;;;;;4990019;28;19918;-71
2024/02/12 13:08:25;;;;;;;;;;;;;;;;;;5002239;28;20072;-71
2024/02/12 13:10:51;;;;;;;;;;;;;;;;;;4989401;28;19961;-72
2024/02/12 13:13:16;;;;;;;;;;;;;;;;;;4987396;28;20063;-72
2024/02/12 13:15:42;;;;;;;;;;;;;;;;;;4984268;28;19926;-72
2024/02/12 13:18:12;;;;;;;;;;;;;;;;;;4990738;28;20012;-72
2024/02/12 13:20:42;;;;;;;;;;;;;;;;;;4989704;28;19980;-73
2024/02/12 13:23:08;;;;;;;;;;;;;;;;;;4989077;28;20456;-71
2024/02/12 13:25:36;;;;;;;;;;;;;;;;;;4986849;28;20020;-73
2024/02/12 13:28:01;;;;;;;;;;;;;;;;;;4989092;28;19928;-72
2024/02/12 13:30:26;;;;;;;;;;;;;;;;;;4987963;28;19968;-72
2024/02/12 13:32:55;;;;;;;;;;;;;;;;;;4990461;28;19932;-72
2024/02/12 13:35:20;;;;;;;;;;;;;;;;;;4987343;28;19917;-72
2024/02/12 13:37:50;;;;;;;;;;;;;;;;;;4990761;28;19917;-70
2024/02/12 13:43:31;;;;;;;;;;;;;;;;;;4987381;28;20527;-72
2024/02/12 13:46:01;;;;;;;;;;;;;;;;;;4991480;28;19918;-71
2024/02/12 13:48:31;;;;;;;;;;;;;;;;;;4989146;28;19960;-71
2024/02/12 13:50:56;;;;;;;;;;;;;;;;;;4991211;28;20260;-73
2024/02/12 13:53:21;;;;;;;;;;;;;;;;;;4992215;28;19928;-71
2024/02/12 13:59:04;;;;;;;;;;;;;;;;;;4994734;28;19925;-71
2024/02/12 14:01:32;;;;;;;;;;;;;;;;;;4994918;28;19917;-71
2024/02/12 14:03:58;;;;;;;;;;;;;;;;;;4993099;28;19926;-73
2024/02/12 14:06:25;;;;;;;;;;;;;;;;;;5008422;28;19963;-72
2024/02/12 14:08:50;;;;;;;;;;;;;;;;;;4994921;28;20000;-72
2024/02/12 14:11:35;;;;;;;;;;;;;;;;;;4991594;28;19945;-72
2024/02/12 14:14:00;;;;;;;;;;;;;;;;;;5008532;28;20471;-71
2024/02/12 14:16:28;;;;;;;;;;;;;;;;;;4992594;28;19921;-72
2024/02/12 14:18:53;;;;;;;;;;;;;;;;;;4996258;28;20230;-73
2024/02/12 14:21:19;;;;;;;;;;;;;;;;;;4990519;28;20421;-73
2024/02/12 14:23:45;;;;;;;;;;;;;;;;;;4993733;28;19925;-74
2024/02/12 14:26:12;;;;;;;;;;;;;;;;;;4993331;28;20362;-73
2024/02/12 14:31:55;;;;;;;;;;;;;;;;;;4990160;28;20362;-73
2024/02/12 14:34:22;;;;;;;;;;;;;;;;;;4993942;28;19917;-74
2024/02/12 14:36:48;;;;;;;;;;;;;;;;;;4993714;28;19979;-73
2024/02/12 14:39:14;;;;;;;;;;;;;;;;;;4991821;28;19932;-74
2024/02/12 14:41:42;;;;;;;;;;;;;;;;;;4993738;28;19968;-73
2024/02/12 14:44:09;;;;;;;;;;;;;;;;;;4990635;28;20319;-73
2024/02/12 14:46:34;;;;;;;;;;;;;;;;;;4992091;28;19921;-72
2024/02/12 14:48:59;;;;;;;;;;;;;;;;;;4991172;28;20035;-74
2024/02/12 14:51:25;;;;;;;;;;;;;;;;;;4996219;28;19917;-71
2024/02/12 14:53:50;;;;;;;;;;;;;;;;;;4992035;28;19921;-73
2024/02/12 14:56:16;;;;;;;;;;;;;;;;;;4991564;28;19955;-72
2024/02/12 14:58:41;;;;;;;;;;;;;;;;;;4992214;28;19921;-72
2024/02/12 15:01:10;;;;;;;;;;;;;;;;;;4993385;28;19988;-73
2024/02/12 15:03:47;;;;;;;;;;;;;;;;;;4993977;28;19925;-72
2024/02/12 15:06:12;;;;;;;;;;;;;;;;;;4991872;28;20397;-70
2024/02/12 15:08:38;;;;;;;;;;;;;;;;;;4972333;28;20200;-74
2024/02/12 15:11:04;;;;;;;;;;;;;;;;;;4988325;28;19918;-73
2024/02/12 15:13:31;;;;;;;;;;;;;;;;;;4999870;28;20599;-72
2024/02/12 15:15:56;;;;;;;;;;;;;;;;;;4995252;28;19940;-70
2024/02/12 15:18:24;;;;;;;;;;;;;;;;;;4990485;28;19922;-72
2024/02/12 15:20:49;;;;;;;;;;;;;;;;;;4982450;28;19991;-73
2024/02/12 15:23:23;;;;;;;;;;;;;;;;;;4987458;28;20794;-72
2024/02/12 15:25:48;;;;;;;;;;;;;;;;;;4991353;28;20369;-73
2024/02/12 15:28:14;;;;;;;;;;;;;;;;;;4992091;28;19964;-73
2024/02/12 15:30:40;;;;;;;;;;;;;;;;;;4993311;28;20487;-73
2024/02/12 15:33:07;;;;;;;;;;;;;;;;;;4992432;28;19933;-73
2024/02/12 15:35:35;;;;;;;;;;;;;;;;;;4993280;28;20052;-72
2024/02/12 15:38:01;;;;;;;;;;;;;;;;;;4989135;28;20226;-73
2024/02/12 15:40:28;;;;;;;;;;;;;;;;;;4989993;28;20624;-72
2024/02/12 15:42:54;;;;;;;;;;;;;;;;;;4986804;28;19988;-72
2024/02/12 15:45:22;;;;;;;;;;;;;;;;;;4991378;28;19936;-72
2024/02/12 15:47:54;;;;;;;;;;;;;;;;;;4991712;28;20401;-71
2024/02/12 15:50:22;;;;;;;;;;;;;;;;;;4983767;28;19917;-72
2024/02/12 15:52:48;;;;;;;;;;;;;;;;;;4993888;28;19925;-72
2024/02/12 15:55:13;;;;;;;;;;;;;;;;;;5005552;28;19921;-72
2024/02/12 15:57:38;;;;;;;;;;;;;;;;;;4989662;28;20034;-71
2024/02/12 16:00:14;;;;;;;;;;;;;;;;;;4991281;28;19971;-74
2024/02/12 16:02:39;;;;;;;;;;;;;;;;;;5006373;28;19921;-72
2024/02/12 16:05:06;;;;;;;;;;;;;;;;;;4992701;28;19972;-72
2024/02/12 16:07:34;;;;;;;;;;;;;;;;;;4988917;28;19925;-72
2024/02/12 16:09:59;;;;;;;;;;;;;;;;;;4992889;28;20269;-71
2024/02/12 16:12:27;;;;;;;;;;;;;;;;;;4990132;28;19922;-71
2024/02/12 16:14:56;;;;;;;;;;;;;;;;;;4991070;28;19926;-71
2024/02/12 16:17:21;;;;;;;;;;;;;;;;;;4988376;28;19925;-71
2024/02/12 16:19:47;;;;;;;;;;;;;;;;;;4991545;28;19921;-71
2024/02/12 16:22:13;;;;;;;;;;;;;;;;;;4989497;28;20386;-71
2024/02/12 16:24:38;;;;;;;;;;;;;;;;;;4993119;28;19921;-70
2024/02/12 16:30:20;;;;;;;;;;;;;;;;;;4992175;28;19987;-71
2024/02/12 16:32:47;;;;;;;;;;;;;;;;;;4972991;28;20007;-71
2024/02/12 16:35:12;;;;;;;;;;;;;;;;;;4991867;28;20404;-71
2024/02/12 16:37:40;;;;;;;;;;;;;;;;;;4988197;28;19921;-72
2024/02/12 16:40:11;;;;;;;;;;;;;;;;;;4988156;28;19921;-71
2024/02/12 16:42:38;;;;;;;;;;;;;;;;;;4990947;28;20057;-71
2024/02/12 16:48:25;;;;;;;;;;;;;;;;;;4992409;28;20002;-71
2024/02/12 16:54:07;;;;;;;;;;;;;;;;;;4988835;28;20226;-72
2024/02/12 16:56:36;;;;;;;;;;;;;;;;;;4987958;28;19918;-72
2024/02/12 16:59:04;;;;;;;;;;;;;;;;;;4988261;28;19921;-72
2024/02/12 17:01:32;;;;;;;;;;;;;;;;;;4992521;28;19921;-73
2024/02/12 17:03:57;;;;;;;;;;;;;;;;;;4991533;28;19932;-71
2024/02/12 17:06:25;;;;;;;;;;;;;;;;;;4991261;28;19922;-72
2024/02/12 17:08:50;;;;;;;;;;;;;;;;;;4990773;28;19984;-73
2024/02/12 17:11:21;;;;;;;;;;;;;;;;;;4990037;28;19921;-72
2024/02/12 17:13:50;;;;;;;;;;;;;;;;;;4972731;28;20192;-71
2024/02/12 17:19:32;;;;;;;;;;;;;;;;;;4989951;28;20020;-72
2024/02/12 17:21:57;;;;;;;;;;;;;;;;;;4967241;28;19922;-72
2024/02/12 17:24:22;;;;;;;;;;;;;;;;;;4990058;28;19976;-72
2024/02/12 17:26:50;;;;;;;;;;;;;;;;;;4990916;28;20403;-71
2024/02/12 17:36:07;;;;;;;;;;;;;;;;;;4993015;28;20560;-71
2024/02/12 17:38:34;;;;;;;;;;;;;;;;;;4994298;28;19957;-71
2024/02/12 17:40:59;;;;;;;;;;;;;;;;;;4994804;28;19917;-72
2024/02/12 17:43:24;;;;;;;;;;;;;;;;;;4990034;28;19933;-71
2024/02/12 17:45:55;;;;;;;;;;;;;;;;;;4986015;28;20372;-72
2024/02/12 17:48:20;;;;;;;;;;;;;;;;;;4988600;28;19933;-72
2024/02/12 17:54:02;;;;;;;;;;;;;;;;;;4995375;28;20080;-72
2024/02/12 17:56:28;;;;;;;;;;;;;;;;;;4987221;28;20401;-72
2024/02/12 17:58:56;;;;;;;;;;;;;;;;;;4991182;28;20028;-72
2024/02/12 18:01:22;;;;;;;;;;;;;;;;;;4992039;28;20391;-72